Speedwell, Pennsylvania
Current Conditions -  °F | °C
As of 4:22 AM on Monday 24 Nov 2014 (Local Time) from KLNS Reporting Station
Overcast Overcast  
Wind Chill: 60°   Ceiling: 1400
Heat Index: 60°   Visibility: 10mi
Dew Point: 58°   Wind: 13mph
Humidity: 93%   Direction: 180°S
Pressure: 29.63"   Gusts: 24mph
Location:  40.1769°N, 76.295°W
Report Text: KLNS 240922Z AUTO 18011G21KT 10SM BKN014 OVC022 16/14 A2963 RMK AO2 T01560144
Loading
Personal Weather Stations






























Interactive Weather Map New forecast layout! Learn more

10-Day Weather Forecast

Advertisements
Track Severe Weather on mobile